Time;durP1;ratioP1;P1;durP2;ratioP2;P2;SDS_P1;SDS_P2;PMS_P1;PMS_P2;Temp;Humidity;BMP_temperature;BMP_pressure;BME280_temperature;BME280_humidity;BME280_pressure;Samples;Min_cycle;Max_cycle;Signal;HPM_P1;HPM_P2
2023/10/24 00:01:34;;;;;;;7.43;0.90;;;;;10.20;95086.00;;;;5057627;28;20208;-62
2023/10/24 00:04:04;;;;;;;0.97;0.97;;;;;10.20;95084.00;;;;5057832;28;20214;-61
2023/10/24 00:06:31;;;;;;;2.17;1.23;;;;;10.20;95091.00;;;;5057962;28;20203;-61
2023/10/24 00:08:58;;;;;;;1.33;1.30;;;;;10.20;95086.00;;;;5058429;28;20211;-61
2023/10/24 00:11:26;;;;;;;0.80;0.80;;;;;10.20;95079.00;;;;5057954;28;20235;-61
2023/10/24 00:13:53;;;;;;;0.83;0.83;;;;;10.20;95064.00;;;;5058056;28;20230;-61
2023/10/24 00:16:21;;;;;;;1.97;1.53;;;;;10.20;95072.00;;;;5058093;28;20195;-61
2023/10/24 00:18:48;;;;;;;1.10;1.10;;;;;10.30;95085.00;;;;5057699;28;20194;-61
2023/10/24 00:21:17;;;;;;;1.13;1.13;;;;;10.20;95088.00;;;;5039313;28;20208;-61
2023/10/24 00:23:44;;;;;;;0.90;0.90;;;;;10.40;95110.00;;;;5057374;28;20200;-61
2023/10/24 00:26:12;;;;;;;1.10;1.10;;;;;10.40;95109.00;;;;5057836;28;20196;-61
2023/10/24 00:28:39;;;;;;;1.20;1.10;;;;;10.50;95111.00;;;;5057481;28;20199;-61
2023/10/24 00:31:07;;;;;;;1.13;1.13;;;;;10.60;95108.00;;;;5057778;28;20189;-61
2023/10/24 00:33:35;;;;;;;1.13;1.10;;;;;10.40;95105.00;;;;5057433;28;20219;-61
2023/10/24 00:36:02;;;;;;;1.57;1.47;;;;;10.40;95100.00;;;;5039893;28;20196;-61
2023/10/24 00:38:31;;;;;;;1.03;1.03;;;;;10.40;95115.00;;;;5057117;28;20528;-61
2023/10/24 00:40:59;;;;;;;1.53;1.43;;;;;10.40;95101.00;;;;5055541;28;20609;-61
2023/10/24 00:43:26;;;;;;;1.27;1.27;;;;;10.30;95097.00;;;;5057964;28;20196;-61
2023/10/24 00:45:53;;;;;;;1.10;1.10;;;;;10.30;95083.00;;;;5060103;28;20580;-61
2023/10/24 00:48:21;;;;;;;0.80;0.80;;;;;10.30;95086.00;;;;5059670;28;20196;-61
2023/10/24 00:50:48;;;;;;;1.07;1.07;;;;;10.30;95086.00;;;;5059509;28;20199;-61
2023/10/24 00:53:16;;;;;;;1.33;1.33;;;;;10.30;95077.00;;;;5060009;28;20251;-61
2023/10/24 00:55:45;;;;;;;1.07;1.07;;;;;10.20;95066.00;;;;5059729;28;20553;-61
2023/10/24 00:58:13;;;;;;;1.30;1.30;;;;;10.20;95061.00;;;;5059562;28;20188;-60
2023/10/24 01:00:44;;;;;;;2.00;1.73;;;;;10.20;95065.00;;;;5059594;28;20219;-60
2023/10/24 01:03:12;;;;;;;2.00;1.83;;;;;10.20;95067.00;;;;5059388;28;20204;-61
2023/10/24 01:05:40;;;;;;;1.13;1.13;;;;;10.30;95069.00;;;;5060006;28;20658;-60
2023/10/24 01:08:07;;;;;;;1.43;1.33;;;;;10.30;95065.00;;;;5042158;28;20604;-61
2023/10/24 01:10:35;;;;;;;1.10;1.10;;;;;10.40;95059.00;;;;5059209;28;20204;-61
2023/10/24 01:13:04;;;;;;;0.90;0.90;;;;;10.50;95054.00;;;;5059015;28;20224;-61
2023/10/24 01:15:33;;;;;;;4.77;1.73;;;;;10.50;95052.00;;;;5059170;28;20283;-60
2023/10/24 01:18:02;;;;;;;1.40;1.30;;;;;10.60;95040.00;;;;5057988;28;20192;-60
2023/10/24 01:20:30;;;;;;;1.17;1.17;;;;;10.70;95044.00;;;;5059118;28;20194;-61
2023/10/24 01:22:58;;;;;;;1.27;1.20;;;;;10.70;95025.00;;;;5058521;28;20220;-61
2023/10/24 01:25:29;;;;;;;1.53;1.43;;;;;10.80;95031.00;;;;5059001;28;20284;-60
2023/10/24 01:27:58;;;;;;;1.23;1.20;;;;;10.80;95026.00;;;;5058688;28;20188;-60
2023/10/24 01:30:25;;;;;;;2.37;1.60;;;;;10.70;95028.00;;;;5058622;28;20207;-60
2023/10/24 01:32:53;;;;;;;1.40;1.40;;;;;10.60;95038.00;;;;5058407;28;20231;-61
2023/10/24 01:35:20;;;;;;;1.43;1.33;;;;;10.50;95038.00;;;;5041220;28;20196;-61
2023/10/24 01:37:47;;;;;;;1.00;1.00;;;;;10.40;95043.00;;;;5058560;28;20664;-61
2023/10/24 01:40:16;;;;;;;0.90;0.90;;;;;10.30;95050.00;;;;5058875;28;20596;-61
2023/10/24 01:42:44;;;;;;;0.97;0.97;;;;;10.20;95047.00;;;;5058435;28;20212;-61
2023/10/24 01:45:11;;;;;;;1.30;1.23;;;;;10.20;95030.00;;;;5058299;28;20642;-61
2023/10/24 01:47:39;;;;;;;1.00;1.00;;;;;10.20;95030.00;;;;5057797;28;20287;-61
2023/10/24 01:50:07;;;;;;;1.90;1.77;;;;;10.10;95046.00;;;;5058248;28;20199;-61
2023/10/24 01:52:37;;;;;;;1.17;1.17;;;;;10.20;95061.00;;;;5058341;28;20212;-61
2023/10/24 01:55:05;;;;;;;1.03;1.03;;;;;10.20;95057.00;;;;5057391;28;20192;-61
2023/10/24 01:57:33;;;;;;;1.47;1.43;;;;;10.10;95052.00;;;;5058122;28;20197;-61
2023/10/24 02:00:01;;;;;;;0.93;0.93;;;;;10.10;95053.00;;;;5040924;28;20596;-60
2023/10/24 02:02:28;;;;;;;0.80;0.80;;;;;10.10;95068.00;;;;5057524;28;20208;-61
2023/10/24 02:04:55;;;;;;;0.70;0.70;;;;;10.10;95079.00;;;;5057650;28;20203;-60
2023/10/24 02:07:23;;;;;;;1.20;1.17;;;;;10.20;95073.00;;;;5040270;28;20200;-61
2023/10/24 02:09:52;;;;;;;0.80;0.80;;;;;10.30;95070.00;;;;5058333;28;20566;-61
2023/10/24 02:12:19;;;;;;;1.70;1.10;;;;;10.30;95061.00;;;;5057867;28;20224;-61
2023/10/24 02:14:48;;;;;;;1.07;1.07;;;;;10.30;95053.00;;;;5057973;28;20226;-61
2023/10/24 02:17:15;;;;;;;1.30;1.30;;;;;10.30;95037.00;;;;5057935;28;20242;-61
2023/10/24 02:19:42;;;;;;;1.23;1.17;;;;;10.30;95027.00;;;;5057187;28;20204;-60
2023/10/24 02:22:10;;;;;;;0.90;0.90;;;;;10.40;95035.00;;;;5057195;28;20216;-61
2023/10/24 02:24:37;;;;;;;1.43;1.33;;;;;10.40;95036.00;;;;5057381;28;20206;-60
2023/10/24 02:27:04;;;;;;;0.70;0.70;;;;;10.50;95043.00;;;;5039658;28;20196;-60
2023/10/24 02:29:33;;;;;;;0.80;0.80;;;;;10.30;95045.00;;;;5057605;28;20583;-61
2023/10/24 02:32:02;;;;;;;1.63;1.53;;;;;10.30;95029.00;;;;5057544;28;20216;-61
2023/10/24 02:34:30;;;;;;;0.80;0.80;;;;;10.40;95032.00;;;;5057148;28;20196;-61
2023/10/24 02:36:57;;;;;;;3.40;1.43;;;;;10.50;95028.00;;;;5057422;28;20211;-61
2023/10/24 02:39:24;;;;;;;0.87;0.87;;;;;10.50;95028.00;;;;5057087;28;20586;-61
2023/10/24 02:41:52;;;;;;;0.70;0.70;;;;;10.60;95033.00;;;;5057696;28;20211;-61
2023/10/24 02:44:20;;;;;;;1.67;1.57;;;;;10.60;95030.00;;;;5057506;28;20192;-61
2023/10/24 02:46:48;;;;;;;1.27;1.17;;;;;10.60;95036.00;;;;5057666;28;20636;-61
2023/10/24 02:49:16;;;;;;;0.70;0.70;;;;;10.60;95043.00;;;;5057214;28;20559;-61
2023/10/24 02:51:44;;;;;;;0.97;0.97;;;;;10.40;95050.00;;;;5056774;28;20216;-61
2023/10/24 02:54:11;;;;;;;1.00;1.00;;;;;10.30;95043.00;;;;5057281;28;20645;-61
2023/10/24 02:56:39;;;;;;;0.73;0.73;;;;;10.40;95042.00;;;;5056808;28;20660;-61
2023/10/24 02:59:07;;;;;;;1.67;1.57;;;;;10.30;95056.00;;;;5056188;28;20555;-61
2023/10/24 03:01:34;;;;;;;1.00;1.00;;;;;10.20;95053.00;;;;5056800;28;20220;-61
2023/10/24 03:04:02;;;;;;;1.10;1.10;;;;;10.10;95060.00;;;;5057492;28;20580;-61
2023/10/24 03:06:30;;;;;;;0.93;0.93;;;;;10.10;95051.00;;;;5056883;28;20188;-61
2023/10/24 03:08:58;;;;;;;4.20;1.73;;;;;10.10;95056.00;;;;5057096;28;20270;-61
2023/10/24 03:11:26;;;;;;;0.60;0.60;;;;;10.10;95054.00;;;;5057200;28;20769;-61
2023/10/24 03:13:54;;;;;;;0.83;0.83;;;;;10.10;95053.00;;;;5056630;28;20241;-61
2023/10/24 03:16:22;;;;;;;0.80;0.80;;;;;10.10;95047.00;;;;5057136;28;20202;-61
2023/10/24 03:18:49;;;;;;;1.03;1.03;;;;;10.10;95055.00;;;;5057038;28;20192;-61
2023/10/24 03:21:17;;;;;;;1.10;1.10;;;;;10.00;95071.00;;;;5056565;28;20220;-61
2023/10/24 03:23:45;;;;;;;0.70;0.70;;;;;10.10;95046.00;;;;5056929;28;20184;-61
2023/10/24 03:26:13;;;;;;;0.90;0.90;;;;;10.10;95053.00;;;;5057437;28;20250;-60
2023/10/24 03:28:40;;;;;;;0.80;0.80;;;;;10.20;95055.00;;;;5056931;28;20267;-60
2023/10/24 03:31:08;;;;;;;1.10;1.10;;;;;10.20;95049.00;;;;5057109;28;20210;-61
2023/10/24 03:33:36;;;;;;;0.93;0.93;;;;;10.30;95044.00;;;;5057575;28;20251;-61
2023/10/24 03:36:04;;;;;;;1.07;1.07;;;;;10.30;95055.00;;;;5057242;28;20199;-61
2023/10/24 03:38:32;;;;;;;0.70;0.70;;;;;10.30;95052.00;;;;5056611;28;20203;-61
2023/10/24 03:41:01;;;;;;;1.47;1.37;;;;;10.40;95041.00;;;;5056393;28;20678;-61
2023/10/24 03:43:28;;;;;;;1.00;1.00;;;;;10.30;95038.00;;;;5056814;28;20609;-61
2023/10/24 03:45:56;;;;;;;1.60;1.50;;;;;10.30;95028.00;;;;5056677;28;20195;-61
2023/10/24 03:48:23;;;;;;;1.30;1.30;;;;;10.40;95013.00;;;;5057125;28;20541;-61
2023/10/24 03:50:50;;;;;;;0.70;0.70;;;;;10.40;95012.00;;;;5057285;28;20525;-62
2023/10/24 03:53:18;;;;;;;2.10;1.77;;;;;10.50;94999.00;;;;5056288;28;20234;-61
2023/10/24 03:55:54;;;;;;;1.47;1.37;;;;;10.50;94988.00;;;;5056954;28;20198;-62
2023/10/24 03:58:23;;;;;;;1.10;1.10;;;;;10.40;94978.00;;;;5056534;28;20188;-61
2023/10/24 04:00:50;;;;;;;0.83;0.83;;;;;10.50;94977.00;;;;5038281;28;20196;-61
2023/10/24 04:03:19;;;;;;;1.27;1.17;;;;;10.40;94981.00;;;;5056435;28;20196;-61
2023/10/24 04:05:47;;;;;;;1.93;1.47;;;;;10.30;94962.00;;;;5056636;28;20192;-61
2023/10/24 04:08:14;;;;;;;0.63;0.63;;;;;10.30;94973.00;;;;5056787;28;20211;-61
2023/10/24 04:10:41;;;;;;;1.50;1.40;;;;;10.20;94968.00;;;;5038693;28;20222;-61
2023/10/24 04:13:09;;;;;;;1.47;1.37;;;;;10.20;94971.00;;;;5056162;28;20227;-61
2023/10/24 04:15:38;;;;;;;0.87;0.87;;;;;10.20;94972.00;;;;5057008;28;20267;-62
2023/10/24 04:18:05;;;;;;;1.20;1.13;;;;;10.10;94965.00;;;;5058679;28;20195;-61
2023/10/24 04:20:32;;;;;;;1.00;1.00;;;;;10.20;94969.00;;;;5059699;28;20196;-61
2023/10/24 04:23:03;;;;;;;1.13;1.13;;;;;10.20;94976.00;;;;5060479;28;20208;-61
2023/10/24 04:25:30;;;;;;;1.10;1.10;;;;;10.20;94979.00;;;;5042171;28;20548;-61
2023/10/24 04:27:59;;;;;;;1.23;1.17;;;;;10.20;94983.00;;;;5060396;28;20200;-61
2023/10/24 04:30:27;;;;;;;0.80;0.80;;;;;10.20;94979.00;;;;5060408;28;20188;-61
2023/10/24 04:32:56;;;;;;;1.73;1.63;;;;;10.20;94987.00;;;;5059786;28;20298;-61
2023/10/24 04:35:24;;;;;;;0.77;0.77;;;;;10.30;94993.00;;;;5059542;28;20207;-61
2023/10/24 04:37:51;;;;;;;1.63;1.53;;;;;10.20;94994.00;;;;5059447;28;20274;-61
2023/10/24 04:40:19;;;;;;;1.70;1.30;;;;;10.30;94990.00;;;;5059344;28;20203;-61
2023/10/24 04:42:46;;;;;;;1.27;1.27;;;;;10.30;94990.00;;;;5058865;28;20274;-61
2023/10/24 04:45:14;;;;;;;1.10;1.10;;;;;10.30;94981.00;;;;5059797;28;20616;-61
2023/10/24 04:47:42;;;;;;;0.90;0.90;;;;;10.30;94971.00;;;;5041722;28;20659;-62
2023/10/24 04:50:13;;;;;;;1.30;1.30;;;;;10.30;94951.00;;;;5040330;28;20211;-61
2023/10/24 04:52:40;;;;;;;1.27;1.27;;;;;10.30;94952.00;;;;5058291;28;20216;-61
2023/10/24 04:55:08;;;;;;;0.90;0.90;;;;;10.30;94950.00;;;;5058189;28;20199;-61
2023/10/24 04:57:36;;;;;;;1.07;1.07;;;;;10.30;94936.00;;;;5058486;28;20195;-61
2023/10/24 05:00:04;;;;;;;1.73;1.63;;;;;10.30;94930.00;;;;5058945;28;20196;-61
2023/10/24 05:02:31;;;;;;;1.60;1.50;;;;;10.30;94930.00;;;;5058400;28;20573;-61
2023/10/24 05:04:58;;;;;;;1.10;1.00;;;;;10.30;94937.00;;;;5058742;28;20202;-61
2023/10/24 05:07:27;;;;;;;1.73;1.63;;;;;10.30;94955.00;;;;5058949;28;20539;-61
2023/10/24 05:09:54;;;;;;;1.33;1.33;;;;;10.20;94953.00;;;;5059537;28;20554;-61
2023/10/24 05:12:22;;;;;;;1.33;1.33;;;;;10.10;94936.00;;;;5059746;28;20219;-61
2023/10/24 05:14:49;;;;;;;1.43;1.30;;;;;10.20;94938.00;;;;5059329;28;20218;-61
2023/10/24 05:17:17;;;;;;;1.50;1.40;;;;;10.10;94929.00;;;;5041161;28;20207;-61
2023/10/24 05:19:44;;;;;;;1.07;1.07;;;;;10.10;94928.00;;;;5041880;28;20207;-61
2023/10/24 05:22:12;;;;;;;0.80;0.80;;;;;10.10;94923.00;;;;5058700;28;20216;-61
2023/10/24 05:24:41;;;;;;;1.30;1.20;;;;;10.10;94911.00;;;;5058749;28;20196;-61
2023/10/24 05:27:09;;;;;;;1.07;1.07;;;;;10.10;94917.00;;;;5059094;28;20279;-61
2023/10/24 05:29:36;;;;;;;1.70;1.60;;;;;10.10;94914.00;;;;5057791;28;20200;-61
2023/10/24 05:32:04;;;;;;;1.40;1.30;;;;;10.10;94912.00;;;;5061419;28;20208;-61
2023/10/24 05:34:32;;;;;;;1.23;1.23;;;;;10.10;94905.00;;;;5062542;28;20710;-61
2023/10/24 05:36:59;;;;;;;1.47;1.37;;;;;10.10;94908.00;;;;5061406;28;20208;-61
2023/10/24 05:39:28;;;;;;;0.70;0.70;;;;;10.10;94915.00;;;;5059323;28;20192;-61
2023/10/24 05:41:57;;;;;;;2.00;0.80;;;;;10.00;94901.00;;;;5058931;28;20212;-61
2023/10/24 05:44:25;;;;;;;0.73;0.73;;;;;9.90;94899.00;;;;5058723;28;20184;-61
2023/10/24 05:46:53;;;;;;;1.03;1.03;;;;;9.90;94895.00;;;;5058692;28;20671;-61
2023/10/24 05:49:21;;;;;;;1.77;1.57;;;;;9.90;94894.00;;;;5058700;28;20286;-61
2023/10/24 05:51:49;;;;;;;1.23;1.20;;;;;10.00;94886.00;;;;5058185;28;20618;-61
2023/10/24 05:54:16;;;;;;;1.03;0.83;;;;;10.00;94906.00;;;;5058653;28;20727;-62
2023/10/24 05:56:44;;;;;;;1.37;1.27;;;;;9.90;94909.00;;;;5058382;28;20254;-61
2023/10/24 05:59:13;;;;;;;0.90;0.90;;;;;9.90;94909.00;;;;5058589;28;20620;-61
2023/10/24 06:01:40;;;;;;;1.07;1.07;;;;;9.90;94911.00;;;;5058517;28;20240;-61
2023/10/24 06:04:07;;;;;;;1.27;1.27;;;;;10.00;94918.00;;;;5058571;28;20602;-61
2023/10/24 06:06:35;;;;;;;1.17;1.17;;;;;9.90;94918.00;;;;5057906;28;20196;-61
2023/10/24 06:09:03;;;;;;;1.00;1.00;;;;;9.90;94926.00;;;;5057465;28;20203;-61
2023/10/24 06:11:31;;;;;;;1.37;1.27;;;;;9.90;94929.00;;;;5057799;28;20703;-62
2023/10/24 06:13:57;;;;;;;1.70;1.53;;;;;9.90;94927.00;;;;5057355;28;20223;-61
2023/10/24 06:16:27;;;;;;;0.80;0.80;;;;;9.90;94926.00;;;;5058335;28;20184;-61
2023/10/24 06:18:54;;;;;;;1.97;1.77;;;;;9.90;94945.00;;;;5057853;28;20219;-61
2023/10/24 06:21:22;;;;;;;1.33;1.23;;;;;9.90;94957.00;;;;5057851;28;20219;-61
2023/10/24 06:23:50;;;;;;;0.80;0.80;;;;;9.80;94957.00;;;;5059112;28;20640;-61
2023/10/24 06:26:18;;;;;;;2.10;2.00;;;;;9.90;94950.00;;;;5041320;28;20208;-61
2023/10/24 06:28:46;;;;;;;0.90;0.90;;;;;9.90;94955.00;;;;5059230;28;20199;-61
2023/10/24 06:31:14;;;;;;;0.90;0.90;;;;;9.80;94962.00;;;;5059551;28;20211;-61
2023/10/24 06:33:43;;;;;;;1.40;1.30;;;;;9.90;94960.00;;;;5059086;28;20211;-61
2023/10/24 06:36:10;;;;;;;1.27;1.17;;;;;10.00;94968.00;;;;5057897;28;20200;-61
2023/10/24 06:38:38;;;;;;;1.23;1.13;;;;;10.00;94965.00;;;;5039743;28;20191;-61
2023/10/24 06:41:08;;;;;;;1.37;1.30;;;;;10.00;94947.00;;;;5057110;28;20207;-61
2023/10/24 06:43:36;;;;;;;0.70;0.70;;;;;10.10;94952.00;;;;5055405;28;20258;-62
2023/10/24 06:46:04;;;;;;;1.50;1.13;;;;;10.10;94945.00;;;;5053948;28;20196;-65
2023/10/24 06:48:32;;;;;;;1.03;1.03;;;;;10.20;94940.00;;;;5055683;28;20572;-65
2023/10/24 06:51:02;;;;;;;0.90;0.90;;;;;10.20;94941.00;;;;5055177;28;20572;-64
2023/10/24 06:53:29;;;;;;;1.03;1.03;;;;;10.10;94940.00;;;;5038196;28;20311;-63
2023/10/24 06:56:00;;;;;;;0.93;0.93;;;;;10.00;94930.00;;;;5055384;28;20274;-64
2023/10/24 06:58:27;;;;;;;1.20;1.17;;;;;10.10;94933.00;;;;5055592;28;20638;-65
2023/10/24 07:00:55;;;;;;;0.70;0.70;;;;;10.10;94923.00;;;;5054453;28;20204;-61
2023/10/24 07:03:23;;;;;;;0.70;0.70;;;;;10.10;94923.00;;;;5054832;28;20294;-61
2023/10/24 07:05:52;;;;;;;1.03;1.03;;;;;10.10;94923.00;;;;5054540;28;20604;-61
2023/10/24 07:08:21;;;;;;;0.93;0.93;;;;;10.10;94930.00;;;;5054190;28;20200;-61
2023/10/24 07:10:49;;;;;;;0.73;0.73;;;;;10.00;94938.00;;;;5053633;28;20196;-61
2023/10/24 07:13:17;;;;;;;1.10;1.00;;;;;10.00;94947.00;;;;5053123;28;20238;-61
2023/10/24 07:15:44;;;;;;;0.93;0.93;;;;;10.00;94949.00;;;;5054734;28;20216;-62
2023/10/24 07:18:12;;;;;;;0.73;0.73;;;;;10.00;94950.00;;;;5055611;28;20609;-61
2023/10/24 07:20:40;;;;;;;1.70;1.47;;;;;10.10;94933.00;;;;5037201;28;20200;-61
2023/10/24 07:23:08;;;;;;;1.33;1.33;;;;;10.10;94923.00;;;;5055958;28;20216;-61
2023/10/24 07:25:37;;;;;;;0.73;0.73;;;;;10.10;94946.00;;;;5054806;28;20192;-61
2023/10/24 07:28:05;;;;;;;0.80;0.80;;;;;10.20;94951.00;;;;5055253;28;20207;-61
2023/10/24 07:30:33;;;;;;;1.17;1.07;;;;;10.20;94957.00;;;;5053816;28;20196;-61
2023/10/24 07:33:00;;;;;;;0.93;0.93;;;;;10.20;94953.00;;;;5054750;28;20226;-61
2023/10/24 07:35:27;;;;;;;0.70;0.70;;;;;10.20;94959.00;;;;5054658;28;20216;-61
2023/10/24 07:37:55;;;;;;;0.67;0.67;;;;;10.20;94957.00;;;;5054728;28;20210;-61
2023/10/24 07:40:22;;;;;;;0.80;0.80;;;;;10.30;94953.00;;;;5053722;28;20266;-61
2023/10/24 07:42:51;;;;;;;0.90;0.90;;;;;10.30;94945.00;;;;5054593;28;20231;-61
2023/10/24 07:45:18;;;;;;;1.67;1.57;;;;;10.30;94945.00;;;;5054977;28;20280;-61
2023/10/24 07:47:46;;;;;;;7.03;5.07;;;;;10.30;94953.00;;;;5053810;28;20199;-61
2023/10/24 07:50:13;;;;;;;1.87;1.77;;;;;10.30;94956.00;;;;5054479;28;20208;-61
2023/10/24 07:52:42;;;;;;;3.00;2.53;;;;;10.30;94954.00;;;;5055671;28;20303;-61
2023/10/24 07:55:10;;;;;;;1.30;1.30;;;;;10.40;94964.00;;;;5058523;28;20216;-60
2023/10/24 07:57:37;;;;;;;2.50;2.40;;;;;10.40;94956.00;;;;5058687;28;20192;-61
2023/10/24 08:00:08;;;;;;;2.50;2.30;;;;;10.40;94962.00;;;;5058546;28;20188;-61
2023/10/24 08:02:35;;;;;;;1.27;1.27;;;;;10.50;94966.00;;;;5058123;28;20253;-61
2023/10/24 08:05:03;;;;;;;1.13;1.13;;;;;10.40;94963.00;;;;5058640;28;20202;-61
2023/10/24 08:07:31;;;;;;;1.60;1.50;;;;;10.50;94965.00;;;;5040995;28;20196;-61
2023/10/24 08:09:58;;;;;;;1.03;1.03;;;;;10.50;94964.00;;;;5039945;28;20302;-61
2023/10/24 08:12:26;;;;;;;1.20;1.20;;;;;10.60;94967.00;;;;5057894;28;20238;-61
2023/10/24 08:14:53;;;;;;;1.30;1.23;;;;;10.60;94968.00;;;;5057569;28;20227;-61
2023/10/24 08:17:22;;;;;;;0.97;0.97;;;;;10.60;94964.00;;;;5057755;28;20292;-62
2023/10/24 08:19:50;;;;;;;1.27;1.27;;;;;10.60;94973.00;;;;5039731;28;20204;-61
2023/10/24 08:22:17;;;;;;;3.80;1.70;;;;;10.60;94972.00;;;;5039775;28;20232;-61
2023/10/24 08:24:44;;;;;;;1.00;1.00;;;;;10.70;94968.00;;;;5057898;28;20188;-61
2023/10/24 08:27:12;;;;;;;1.00;1.00;;;;;10.70;94974.00;;;;5040324;28;20573;-61
2023/10/24 08:29:39;;;;;;;1.13;1.13;;;;;10.70;94969.00;;;;5057934;28;20198;-61
2023/10/24 08:32:07;;;;;;;1.67;1.57;;;;;10.70;94975.00;;;;5058163;28;20224;-61
2023/10/24 08:34:36;;;;;;;6.60;3.57;;;;;10.80;94964.00;;;;5057132;28;20216;-61
2023/10/24 08:37:04;;;;;;;0.90;0.90;;;;;10.80;94967.00;;;;5058016;28;20284;-61
2023/10/24 08:39:31;;;;;;;1.10;1.10;;;;;10.90;94963.00;;;;5056522;28;20191;-61
2023/10/24 08:41:59;;;;;;;4.63;2.27;;;;;10.90;94963.00;;;;5057451;28;20219;-61
2023/10/24 08:44:27;;;;;;;1.47;1.37;;;;;11.00;94958.00;;;;5039246;28;20583;-61
2023/10/24 08:46:55;;;;;;;1.30;1.30;;;;;10.90;94953.00;;;;5057714;28;20685;-61
2023/10/24 08:49:23;;;;;;;1.33;1.33;;;;;11.00;94942.00;;;;5037989;28;20219;-61
2023/10/24 08:51:53;;;;;;;4.03;1.23;;;;;11.00;94945.00;;;;5057727;28;20300;-61
2023/10/24 08:54:20;;;;;;;1.20;1.20;;;;;11.00;94907.00;;;;5059983;28;20583;-61
2023/10/24 08:56:48;;;;;;;1.50;1.47;;;;;11.10;94934.00;;;;5041296;28;20208;-61
2023/10/24 08:59:19;;;;;;;1.00;1.00;;;;;11.10;94932.00;;;;5059511;28;20200;-61
2023/10/24 09:01:47;;;;;;;1.60;1.53;;;;;11.20;94927.00;;;;5059021;28;20922;-61
2023/10/24 09:04:14;;;;;;;1.17;1.17;;;;;11.20;94929.00;;;;5059861;28;20279;-61
2023/10/24 09:06:42;;;;;;;0.80;0.80;;;;;11.30;94936.00;;;;5061180;28;20200;-61
2023/10/24 09:09:12;;;;;;;0.97;0.97;;;;;11.30;94931.00;;;;5061021;28;20211;-61
2023/10/24 09:11:55;;;;;;;0.80;0.80;;;;;11.20;94930.00;;;;5060333;28;20319;-61
2023/10/24 09:14:24;;;;;;;1.23;1.10;;;;;11.10;94938.00;;;;5054669;28;20211;-61
2023/10/24 09:16:55;;;;;;;1.50;1.40;;;;;11.10;94929.00;;;;5058008;28;20203;-61
2023/10/24 09:19:22;;;;;;;1.30;1.30;;;;;11.00;94935.00;;;;5057719;28;20188;-61
2023/10/24 09:21:51;;;;;;;1.70;1.57;;;;;11.10;94936.00;;;;5058344;28;20306;-61
2023/10/24 09:24:20;;;;;;;1.67;1.37;;;;;11.20;94934.00;;;;5057523;28;20192;-61
2023/10/24 09:26:54;;;;;;;1.97;1.83;;;;;11.20;94945.00;;;;5057510;28;20203;-61
2023/10/24 09:29:24;;;;;;;1.87;1.77;;;;;11.20;94947.00;;;;5056453;28;20229;-61
2023/10/24 09:31:52;;;;;;;1.90;1.80;;;;;11.30;94947.00;;;;5056202;28;20255;-61
2023/10/24 09:34:20;;;;;;;2.83;2.33;;;;;11.30;94958.00;;;;5056713;28;20220;-61
2023/10/24 09:36:48;;;;;;;2.03;1.93;;;;;11.30;94959.00;;;;5055790;28;20208;-61
2023/10/24 09:39:16;;;;;;;7.73;3.07;;;;;11.30;94960.00;;;;5053414;28;20196;-61
2023/10/24 09:41:47;;;;;;;1.80;1.70;;;;;11.30;94970.00;;;;5053239;28;20220;-61
2023/10/24 09:44:15;;;;;;;1.37;1.37;;;;;11.40;94969.00;;;;5053948;28;20258;-61
2023/10/24 09:46:44;;;;;;;1.20;1.20;;;;;11.50;94970.00;;;;5054912;28;20192;-61
2023/10/24 09:49:12;;;;;;;1.17;1.17;;;;;11.50;94969.00;;;;5054439;28;20196;-61
2023/10/24 09:51:40;;;;;;;1.50;1.47;;;;;11.60;94965.00;;;;5055744;28;20212;-61
2023/10/24 09:54:08;;;;;;;1.80;1.70;;;;;11.60;94962.00;;;;5055734;28;20207;-61
2023/10/24 09:56:36;;;;;;;1.47;1.37;;;;;11.60;94961.00;;;;5056130;28;20219;-61
2023/10/24 09:59:07;;;;;;;1.17;1.17;;;;;11.60;94960.00;;;;5054547;28;20196;-61
2023/10/24 10:01:35;;;;;;;1.20;1.20;;;;;11.70;94956.00;;;;5049449;28;20286;-61
2023/10/24 10:04:04;;;;;;;2.27;2.17;;;;;11.60;94950.00;;;;5054204;28;20215;-61
2023/10/24 10:06:34;;;;;;;2.33;2.13;;;;;11.70;94960.00;;;;5055316;28;20200;-61
2023/10/24 10:09:03;;;;;;;4.17;3.77;;;;;11.70;94947.00;;;;5054765;28;20196;-61
2023/10/24 10:11:32;;;;;;;3.93;3.53;;;;;11.70;94951.00;;;;5053627;28;20573;-61
2023/10/24 10:14:14;;;;;;;2.33;2.13;;;12.50;99.90;11.80;94954.00;;;;5053314;28;20269;-61
2023/10/24 10:16:59;;;;;;;2.03;1.93;;;12.50;99.90;11.80;94938.00;;;;5051932;28;20207;-61
2023/10/24 10:20:00;;;;;;;1.93;1.83;;;12.50;99.90;11.90;94945.00;;;;5053528;28;20195;-61
2023/10/24 10:22:53;;;;;;;1.23;1.20;;;12.60;99.90;11.90;94934.00;;;;5052724;28;20220;-65
2023/10/24 10:25:55;;;;;;;1.00;1.00;;;12.70;99.90;11.90;94934.00;;;;5051880;28;20208;-61
2023/10/24 10:28:47;;;;;;;0.90;0.90;;;12.70;99.90;12.00;94933.00;;;;5053372;28;20194;-62
2023/10/24 10:31:37;;;;;;;0.80;0.80;;;12.70;99.90;12.00;94921.00;;;;5052610;28;20219;-62
2023/10/24 10:34:04;;;;;;;1.00;1.00;;;12.70;99.90;12.00;94919.00;;;;5053834;28;20180;-61
2023/10/24 10:36:31;;;;;;;0.77;0.67;;;12.70;99.90;11.90;94922.00;;;;5052842;28;20215;-61
2023/10/24 10:39:00;;;;;;;1.30;1.30;;;12.70;99.90;11.90;94913.00;;;;5052759;28;20196;-61
2023/10/24 10:41:40;;;;;;;0.70;0.70;;;12.60;99.90;11.90;94909.00;;;;5052795;28;20243;-61
2023/10/24 10:44:37;;;;;;;1.70;1.60;;;12.60;99.90;11.90;94909.00;;;;5048577;28;20247;-61
2023/10/24 10:47:07;;;;;;;1.37;1.03;;;12.60;99.90;11.80;94901.00;;;;5052948;28;20191;-61
2023/10/24 10:49:48;;;;;;;1.23;1.23;;;12.60;99.90;11.80;94908.00;;;;5054655;28;20180;-62
2023/10/24 10:52:49;;;;;;;1.70;1.60;;;12.50;99.90;11.90;94897.00;;;;5056423;28;20208;-62
2023/10/24 10:55:47;;;;;;;0.97;0.97;;;12.50;98.90;11.80;94898.00;;;;5052900;28;20218;-62
2023/10/24 10:58:24;;;;;;;1.43;1.33;;;12.50;99.60;11.80;94893.00;;;;5053668;28;20180;-62
2023/10/24 11:01:02;;;;;;;0.80;0.80;;;;;11.80;94900.00;;;;5055632;28;20192;-62
2023/10/24 11:03:39;;;;;;;1.20;1.10;;;;;11.80;94895.00;;;;5053244;28;20192;-61
2023/10/24 11:06:15;;;;;;;0.93;0.93;;;;;11.70;94907.00;;;;5047866;28;20267;-60
2023/10/24 11:08:44;;;;;;;0.77;0.77;;;;;11.80;94907.00;;;;5051557;28;20195;-61
2023/10/24 11:11:12;;;;;;;1.13;1.10;;;;;11.80;94901.00;;;;5051697;28;20299;-62
2023/10/24 11:13:42;;;;;;;0.70;0.70;;;;;11.80;94906.00;;;;5051137;28;20206;-61
2023/10/24 11:16:11;;;;;;;0.90;0.90;;;;;11.70;94903.00;;;;5051584;28;20226;-61
2023/10/24 11:18:41;;;;;;;1.20;1.20;;;12.50;99.90;11.70;94898.00;;;;5051747;28;20195;-62
2023/10/24 11:21:12;;;;;;;1.17;1.10;;;12.40;99.90;11.80;94905.00;;;;5051557;28;20241;-59
2023/10/24 11:23:42;;;;;;;3.23;1.37;;;12.50;99.90;11.80;94903.00;;;;5051439;28;20212;-59
2023/10/24 11:26:10;;;;;;;0.70;0.70;;;12.50;99.90;11.80;94905.00;;;;5051995;28;20204;-59
2023/10/24 11:28:38;;;;;;;0.80;0.80;;;12.50;99.90;11.80;94902.00;;;;5051182;28;20227;-59
2023/10/24 11:31:22;;;;;;;0.63;0.63;;;12.50;99.90;11.80;94887.00;;;;5051786;28;20195;-60
2023/10/24 11:33:51;;;;;;;0.97;0.97;;;12.50;99.90;11.80;94883.00;;;;5049489;28;20285;-59
2023/10/24 11:36:18;;;;;;;0.80;0.80;;;12.50;99.90;11.80;94871.00;;;;5051658;28;20253;-58
2023/10/24 11:38:47;;;;;;;0.80;0.80;;;12.50;99.90;11.80;94883.00;;;;5050796;28;20667;-59
2023/10/24 11:41:14;;;;;;;0.80;0.80;;;12.50;99.90;11.80;94873.00;;;;5051703;28;20212;-59
2023/10/24 11:43:42;;;;;;;0.60;0.60;;;12.50;99.90;11.80;94870.00;;;;5050142;28;20279;-59
2023/10/24 11:46:09;;;;;;;0.60;0.60;;;12.60;99.90;11.80;94864.00;;;;5050843;28;20700;-59
2023/10/24 11:48:36;;;;;;;0.83;0.83;;;12.50;99.90;11.80;94866.00;;;;5051264;28;20188;-59
2023/10/24 11:51:04;;;;;;;0.70;0.70;;;12.50;99.90;11.90;94861.00;;;;5051225;28;20689;-59
2023/10/24 11:53:33;;;;;;;0.60;0.60;;;12.60;99.90;11.90;94864.00;;;;5049986;28;20219;-59
2023/10/24 11:56:01;;;;;;;0.70;0.70;;;12.60;99.90;11.90;94849.00;;;;5051286;28;20218;-59
2023/10/24 11:58:32;;;;;;;0.50;0.50;;;12.60;99.90;11.90;94864.00;;;;5050724;28;20279;-59
2023/10/24 12:01:01;;;;;;;0.60;0.60;;;12.60;99.90;11.90;94850.00;;;;5050901;28;20188;-58
2023/10/24 12:03:42;;;;;;;0.70;0.70;;;12.60;99.90;11.90;94853.00;;;;5050891;28;20218;-58
2023/10/24 12:06:10;;;;;;;0.87;0.87;;;12.70;99.90;12.00;94849.00;;;;5050930;28;20191;-58
2023/10/24 12:08:38;;;;;;;0.80;0.80;;;12.70;99.90;12.00;94852.00;;;;5051150;28;20200;-58
2023/10/24 12:11:05;;;;;;;4.27;2.37;;;12.70;99.90;12.00;94836.00;;;;5049154;28;20196;-58
2023/10/24 12:13:32;;;;;;;1.30;1.30;;;12.70;99.90;12.00;94839.00;;;;5050080;28;20271;-59
2023/10/24 12:15:59;;;;;;;1.00;1.00;;;12.70;99.90;12.10;94842.00;;;;5050482;28;20208;-59